Time;durP1;ratioP1;P1;durP2;ratioP2;P2;SDS_P1;SDS_P2;PMS_P1;PMS_P2;Temp;Humidity;BMP_temperature;BMP_pressure;BME280_temperature;BME280_humidity;BME280_pressure;Samples;Min_cycle;Max_cycle;Signal;HPM_P1;HPM_P2
2023/12/18 00:00:23;;;;;;;19.60;11.15;;;;;;;5.42;71.46;103326.41;4959530;28;20050;-82
2023/12/18 00:02:50;;;;;;;14.98;10.02;;;;;;;5.40;70.05;103282.56;4945359;28;20083;-80
2023/12/18 00:05:17;;;;;;;20.63;11.18;;;;;;;5.58;72.07;103332.16;4936381;28;20050;-80
2023/12/18 00:07:45;;;;;;;16.73;10.45;;;;;;;5.54;72.37;103341.91;4919934;29;20542;-83
2023/12/18 00:10:15;;;;;;;12.80;9.68;;;;;;;5.46;72.47;103342.97;4919759;29;20110;-82
2023/12/18 00:12:43;;;;;;;19.02;10.60;;;;;;;5.50;71.61;103334.13;4918345;29;20056;-81
2023/12/18 00:15:13;;;;;;;15.80;10.50;;;;;;;5.35;71.84;103301.09;4935466;29;20066;-84
2023/12/18 00:17:43;;;;;;;13.77;9.95;;;;;;;5.35;72.75;103304.59;4922592;29;20059;-82
2023/12/18 00:20:14;;;;;;;14.57;10.30;;;;;;;5.40;72.22;103312.38;4919840;29;20050;-82
2023/12/18 00:22:51;;;;;;;16.25;9.70;;;;;;;4.99;72.28;103239.63;4919348;29;20056;-82
2023/12/18 00:25:26;;;;;;;18.48;11.00;;;;;;;5.43;71.47;103287.75;4912797;29;20075;-82
2023/12/18 00:27:53;;;;;;;16.33;10.27;;;;;;;5.61;71.33;103305.75;4934141;29;20407;-82
2023/12/18 00:30:23;;;;;;;17.30;10.27;;;;;;;5.41;70.91;103271.97;4913205;29;20741;-82
2023/12/18 00:32:54;;;;;;;16.77;9.90;;;;;;;5.66;70.07;103293.31;4911651;29;20058;-82
2023/12/18 00:35:23;;;;;;;13.93;11.13;;;;;;;5.61;70.10;103276.75;4935776;29;20087;-81
2023/12/18 00:37:50;;;;;;;17.33;11.23;;;;;;;5.78;69.86;103297.41;4917425;29;20056;-83
2023/12/18 00:40:20;;;;;;;16.63;10.60;;;;;;;5.91;69.70;103301.44;4933635;29;20079;-83
2023/12/18 00:42:47;;;;;;;17.48;10.60;;;;;;;5.86;69.45;103284.03;4900164;29;20064;-83
2023/12/18 00:45:18;;;;;;;18.38;11.80;;;;;;;5.85;68.90;103292.81;4900299;29;20084;-82
2023/12/18 00:47:45;;;;;;;18.35;11.07;;;;;;;5.79;69.09;103278.91;4897195;29;20075;-82
2023/12/18 00:50:19;;;;;;;14.55;10.63;;;;;;;5.96;68.94;103307.50;4911001;29;20052;-82
2023/12/18 00:52:46;;;;;;;15.23;10.75;;;;;;;5.59;69.11;103246.06;4908523;29;20099;-82
2023/12/18 00:55:20;;;;;;;18.88;11.95;;;;;;;5.97;68.56;103305.72;4891189;29;20052;-83
2023/12/18 00:57:54;;;;;;;15.65;11.40;;;;;;;5.98;69.23;103304.81;4906444;29;20048;-84
2023/12/18 01:00:26;;;;;;;18.75;11.82;;;;;;;6.18;68.55;103299.88;4892626;29;20060;-83
2023/12/18 01:02:53;;;;;;;21.30;12.95;;;;;;;6.04;67.91;103288.81;4891090;29;20645;-82
2023/12/18 01:05:23;;;;;;;68.72;19.98;;;;;;;6.18;67.91;103307.78;4947171;28;20046;-83
2023/12/18 01:07:50;;;;;;;80.93;20.40;;;;;;;6.17;67.63;103305.19;4941917;28;20050;-83
2023/12/18 01:10:17;;;;;;;60.83;17.88;;;;;;;5.91;68.14;103272.44;4928654;29;20111;-83
2023/12/18 01:12:47;;;;;;;36.13;14.48;;;;;;;6.14;67.85;103311.44;4909322;29;20143;-83
2023/12/18 01:15:21;;;;;;;29.33;13.68;;;;;;;6.12;67.47;103301.84;4903140;29;20040;-83
2023/12/18 01:17:51;;;;;;;28.67;13.60;;;;;;;6.10;68.56;103293.09;4914600;29;20059;-82
2023/12/18 01:20:22;;;;;;;36.03;14.77;;;;;;;6.11;68.69;103303.56;4913022;29;20064;-81
2023/12/18 01:22:50;;;;;;;25.83;12.88;;;;;;;6.21;68.07;103304.19;4905493;29;20044;-83
2023/12/18 01:25:32;;;;;;;22.77;14.20;;;;;;;6.07;67.95;103278.22;4916560;29;20271;-83
2023/12/18 01:28:03;;;;;;;21.50;12.75;;;;;;;6.20;67.32;103299.84;4905842;29;20042;-83
2023/12/18 01:30:31;;;;;;;23.33;12.48;;;;;;;6.15;67.54;103284.13;4897863;29;20135;-82
2023/12/18 01:33:01;;;;;;;19.05;13.18;;;;;;;6.15;67.55;103270.09;4909077;29;20059;-82
2023/12/18 01:35:33;;;;;;;17.23;11.80;;;;;;;6.14;66.86;103263.94;4928749;29;20135;-82
2023/12/18 01:38:00;;;;;;;18.48;12.30;;;;;;;6.14;67.25;103269.22;4937485;29;20714;-82
2023/12/18 01:40:28;;;;;;;19.77;12.30;;;;;;;6.28;66.74;103289.94;4940379;29;20484;-83
2023/12/18 01:42:58;;;;;;;15.95;11.75;;;;;;;6.46;66.58;103301.75;4937038;29;20162;-82
2023/12/18 01:45:27;;;;;;;18.35;11.68;;;;;;;6.49;65.78;103291.09;4912862;29;20645;-82
2023/12/18 01:47:55;;;;;;;17.27;11.45;;;;;;;6.45;66.52;103294.72;4917544;29;20299;-83
2023/12/18 01:50:27;;;;;;;18.23;12.88;;;;;;;6.40;66.99;103296.63;4934222;28;20044;-82
2023/12/18 01:53:01;;;;;;;17.15;12.32;;;;;;;6.14;66.44;103256.03;4925960;29;20051;-83
2023/12/18 01:55:32;;;;;;;18.15;12.30;;;;;;;6.12;66.36;103249.94;4924222;29;20060;-80
2023/12/18 01:58:14;;;;;;;18.83;12.73;;;;;;;6.39;65.62;103279.09;4913936;29;20504;-84
2023/12/18 02:00:47;;;;;;;16.88;12.38;;;;;;;6.26;66.29;103256.59;4927290;28;20123;-83
2023/12/18 02:03:20;;;;;;;22.13;12.23;;;;;;;5.56;66.63;103144.25;4945825;28;20526;-83
2023/12/18 02:05:49;;;;;;;17.55;13.10;;;;;;;6.22;67.04;103261.09;4956312;28;20102;-82
2023/12/18 02:08:16;;;;;;;17.25;12.63;;;;;;;6.28;66.16;103276.72;4958944;28;20086;-82
2023/12/18 02:10:44;;;;;;;19.45;13.23;;;;;;;6.29;66.62;103272.34;4953892;28;20051;-82
2023/12/18 02:13:11;;;;;;;19.35;12.57;;;;;;;6.18;65.73;103244.47;4940065;29;20082;-82
2023/12/18 02:15:39;;;;;;;15.65;11.65;;;;;;;6.40;65.08;103264.97;4956205;28;20055;-82
2023/12/18 02:18:07;;;;;;;21.02;13.07;;;;;;;6.32;66.06;103265.19;4942953;28;20039;-82
2023/12/18 02:20:34;;;;;;;18.15;11.85;;;;;;;6.33;65.59;103263.41;4956867;28;20055;-82
2023/12/18 02:23:04;;;;;;;17.02;12.45;;;;;;;6.20;65.49;103232.09;4946182;28;20051;-82
2023/12/18 02:25:32;;;;;;;14.77;11.32;;;;;;;6.12;65.87;103233.25;4941603;28;20045;-82
2023/12/18 02:28:00;;;;;;;16.15;12.30;;;;;;;6.27;66.09;103258.34;4956007;28;20106;-82
2023/12/18 02:30:27;;;;;;;16.55;12.32;;;;;;;6.10;66.21;103225.38;4940202;29;20075;-83
2023/12/18 02:32:57;;;;;;;19.70;12.25;;;;;;;6.25;66.26;103254.88;4939282;28;20481;-82
2023/12/18 02:35:25;;;;;;;20.10;13.00;;;;;;;5.45;66.81;103109.41;4954976;28;20106;-82
2023/12/18 02:37:52;;;;;;;17.27;11.98;;;;;;;5.96;65.74;103199.38;4956385;28;20071;-83
2023/12/18 02:40:20;;;;;;;18.95;15.30;;;;;;;6.30;65.62;103255.59;4956382;28;20047;-82
2023/12/18 02:42:48;;;;;;;20.65;14.23;;;;;;;6.29;66.05;103240.69;4940807;28;20093;-82
2023/12/18 02:45:16;;;;;;;19.90;14.07;;;;;;;6.25;66.21;103250.44;4955652;28;20051;-83
2023/12/18 02:47:44;;;;;;;25.70;13.73;;;;;;;6.18;66.27;103239.19;4956558;28;20059;-82
2023/12/18 02:50:15;;;;;;;19.38;13.50;;;;;;;6.25;65.49;103247.81;4954713;28;20043;-81
2023/12/18 02:52:43;;;;;;;18.05;13.27;;;;;;;6.29;65.08;103243.31;4942198;28;20136;-83
2023/12/18 02:55:12;;;;;;;16.65;13.05;;;;;;;6.22;65.57;103228.59;4965290;28;20047;-82
2023/12/18 02:57:39;;;;;;;19.02;14.57;;;;;;;6.08;66.43;103206.09;4955650;28;20055;-82
2023/12/18 03:00:16;;;;;;;19.17;13.90;;;;;;;6.26;65.95;103235.47;4956363;28;20047;-82
2023/12/18 03:02:44;;;;;;;20.23;14.45;;;;;;;6.29;65.36;103235.41;4957059;28;20559;-83
2023/12/18 03:05:13;;;;;;;17.10;12.82;;;;;;;6.32;65.71;103230.03;4955293;28;20424;-83
2023/12/18 03:07:41;;;;;;;18.30;14.25;;;;;;;6.20;63.93;103194.31;4960290;28;20127;-83
2023/12/18 03:10:10;;;;;;;19.25;14.00;;;;;;;6.25;65.07;103202.09;4974904;28;20712;-82
2023/12/18 03:12:41;;;;;;;22.05;14.85;;;;;;;6.32;65.18;103219.47;4965409;28;20214;-83
2023/12/18 03:15:09;;;;;;;18.73;13.55;;;;;;;6.26;65.86;103206.47;4939753;29;20778;-82
2023/12/18 03:17:37;;;;;;;20.50;15.10;;;;;;;6.27;65.52;103206.44;4956648;28;20055;-82
2023/12/18 03:20:05;;;;;;;21.85;14.02;;;;;;;6.07;66.06;103177.09;4940370;29;20141;-80
2023/12/18 03:22:34;;;;;;;24.55;15.32;;;;;;;6.24;65.88;103208.28;4940447;29;20075;-82
2023/12/18 03:25:02;;;;;;;21.38;16.02;;;;;;;6.31;65.80;103215.09;4953253;28;20681;-83
2023/12/18 03:27:35;;;;;;;22.15;14.25;;;;;;;5.53;65.56;103079.31;4954990;28;20126;-83
2023/12/18 03:30:06;;;;;;;23.33;16.27;;;;;;;6.31;65.51;103204.53;4940466;29;20057;-82
2023/12/18 03:32:36;;;;;;;21.08;16.20;;;;;;;6.38;64.76;103196.44;4956166;28;20074;-82
2023/12/18 03:35:04;;;;;;;23.48;17.48;;;;;;;6.47;65.14;103212.88;4963202;28;20046;-82
2023/12/18 03:37:32;;;;;;;24.92;17.42;;;;;;;6.45;65.54;103215.56;4953784;28;20043;-83
2023/12/18 03:40:01;;;;;;;22.95;16.25;;;;;;;6.23;65.21;103169.63;4955766;28;20561;-83
2023/12/18 03:42:28;;;;;;;24.33;17.48;;;;;;;6.31;65.63;103188.72;4936323;29;20047;-82
2023/12/18 03:44:58;;;;;;;27.77;18.75;;;;;;;6.45;65.96;103199.72;4953311;28;20078;-82
2023/12/18 03:47:27;;;;;;;24.13;16.98;;;;;;;6.39;64.93;103189.38;4942548;28;20055;-82
2023/12/18 03:49:54;;;;;;;25.42;18.60;;;;;;;6.42;65.09;103184.84;4941003;28;20047;-83
2023/12/18 03:52:24;;;;;;;30.92;18.73;;;;;;;5.84;65.56;103088.09;4940763;29;20059;-83
2023/12/18 03:55:02;;;;;;;28.05;19.35;;;;;;;6.28;64.77;103149.25;4938348;29;20094;-83
2023/12/18 03:57:37;;;;;;;31.05;19.70;;;;;;;6.48;64.26;103167.09;4954874;28;20149;-81
2023/12/18 04:00:06;;;;;;;25.75;19.10;;;;;;;6.39;64.79;103163.84;4938731;29;20055;-82
2023/12/18 04:02:32;;;;;;;30.23;19.67;;;;;;;6.25;64.79;103122.97;4940053;29;20221;-82
2023/12/18 04:05:03;;;;;;;27.15;19.30;;;;;;;6.53;65.16;103187.19;4953551;28;20075;-82
2023/12/18 04:07:30;;;;;;;26.45;18.83;;;;;;;6.58;65.18;103187.91;4953531;28;20078;-82
2023/12/18 04:09:57;;;;;;;26.75;18.92;;;;;;;6.53;65.34;103184.53;4937250;29;20070;-83
2023/12/18 04:12:25;;;;;;;24.58;19.27;;;;;;;6.42;65.31;103154.97;4953481;28;20059;-83
2023/12/18 04:14:58;;;;;;;31.83;21.02;;;;;;;6.54;64.64;103175.69;4941063;28;20102;-83
2023/12/18 04:17:26;;;;;;;27.38;19.58;;;;;;;6.60;63.79;103172.88;4955010;28;20529;-81
2023/12/18 04:19:57;;;;;;;32.40;19.90;;;;;;;6.50;63.91;103147.66;4953676;28;20061;-81
2023/12/18 04:22:24;;;;;;;23.58;17.88;;;;;;;6.54;63.70;103157.22;4954958;28;20051;-81
2023/12/18 04:24:54;;;;;;;31.73;19.30;;;;;;;6.61;64.04;103174.59;4939541;28;20051;-82
2023/12/18 04:27:24;;;;;;;32.67;20.10;;;;;;;6.58;64.50;103172.06;4938970;29;20059;-81
2023/12/18 04:29:51;;;;;;;31.02;19.98;;;;;;;6.54;65.14;103167.78;4955674;28;20051;-82
2023/12/18 04:32:18;;;;;;;28.20;21.05;;;;;;;6.68;65.18;103185.84;4936082;28;20058;-81
2023/12/18 04:34:45;;;;;;;28.55;19.60;;;;;;;6.25;64.13;103107.13;4941249;28;20146;-81
2023/12/18 04:37:15;;;;;;;31.50;19.52;;;;;;;6.65;64.24;103175.38;4954630;28;20055;-81
2023/12/18 04:39:44;;;;;;;28.65;19.63;;;;;;;6.52;64.16;103137.06;4952373;28;20721;-81
2023/12/18 04:42:11;;;;;;;29.33;20.15;;;;;;;6.75;63.45;103168.91;4940318;28;20657;-81
2023/12/18 04:44:38;;;;;;;28.25;19.67;;;;;;;6.59;64.56;103160.59;4935199;29;20047;-81
2023/12/18 04:47:05;;;;;;;25.10;17.98;;;;;;;6.69;64.07;103176.13;4953837;28;20149;-81
2023/12/18 04:49:32;;;;;;;28.08;18.70;;;;;;;6.67;63.93;103177.97;4940001;28;20058;-82
2023/12/18 04:52:00;;;;;;;28.40;20.08;;;;;;;6.29;64.33;103114.06;4940142;28;20055;-81
2023/12/18 04:54:27;;;;;;;25.42;18.25;;;;;;;6.61;63.97;103171.97;4944126;29;20051;-82
2023/12/18 04:56:56;;;;;;;26.90;17.42;;;;;;;6.27;63.52;103106.19;4944273;28;20047;-79
2023/12/18 04:59:23;;;;;;;25.45;17.42;;;;;;;6.02;64.30;103069.16;4943484;28;20047;-82
2023/12/18 05:01:50;;;;;;;30.27;18.67;;;;;;;6.47;64.99;103163.59;4957956;28;20043;-81
2023/12/18 05:04:18;;;;;;;27.10;17.80;;;;;;;6.53;64.81;103160.78;4968365;28;20081;-81
2023/12/18 05:06:45;;;;;;;29.77;17.50;;;;;;;6.47;64.18;103152.19;4981268;28;20054;-82
2023/12/18 05:09:13;;;;;;;30.50;18.45;;;;;;;6.46;64.40;103153.97;4984178;28;20509;-81
2023/12/18 05:11:44;;;;;;;24.45;17.30;;;;;;;6.46;64.30;103159.25;4963413;28;20044;-81
2023/12/18 05:14:11;;;;;;;27.88;17.55;;;;;;;6.52;64.57;103163.47;4964074;28;20122;-80
2023/12/18 05:16:42;;;;;;;26.52;17.38;;;;;;;6.58;63.71;103174.69;4960497;28;20086;-80
2023/12/18 05:19:11;;;;;;;26.33;16.77;;;;;;;6.41;64.32;103146.19;4961190;28;20687;-80
2023/12/18 05:21:40;;;;;;;26.95;17.80;;;;;;;6.53;64.28;103168.72;4963790;28;20466;-83
2023/12/18 05:24:09;;;;;;;23.55;17.70;;;;;;;6.49;63.88;103164.44;4961101;28;20043;-82
2023/12/18 05:26:40;;;;;;;30.45;18.33;;;;;;;6.49;64.35;103174.97;4964153;28;20061;-84
2023/12/18 05:29:07;;;;;;;28.83;18.90;;;;;;;6.53;63.68;103166.06;4962939;28;20051;-81
2023/12/18 05:31:35;;;;;;;34.60;23.75;;;;;;;6.48;63.92;103160.06;4962381;28;20101;-82
2023/12/18 05:34:02;;;;;;;33.67;21.15;;;;;;;6.50;64.42;103165.28;4967509;28;20081;-81
2023/12/18 05:36:32;;;;;;;38.10;20.73;;;;;;;6.41;64.05;103134.78;4965329;28;20045;-82
2023/12/18 05:39:01;;;;;;;32.75;18.77;;;;;;;6.58;63.82;103174.69;4960107;28;20050;-82
2023/12/18 05:41:28;;;;;;;32.63;18.65;;;;;;;6.38;64.52;103145.41;4961791;28;20085;-81
2023/12/18 05:44:01;;;;;;;26.55;17.95;;;;;;;5.88;64.62;103063.41;4962063;28;20050;-81
2023/12/18 05:46:28;;;;;;;24.30;17.00;;;;;;;6.45;64.64;103172.47;4944246;28;20077;-81
2023/12/18 05:48:59;;;;;;;26.70;16.30;;;;;;;6.34;65.44;103176.31;4958856;28;20043;-82
2023/12/18 05:51:30;;;;;;;21.30;15.27;;;;;;;6.05;64.59;103132.34;4933420;28;20055;-83
2023/12/18 05:53:57;;;;;;;27.73;16.52;;;;;;;6.24;65.63;103163.44;4925530;29;20047;-84
2023/12/18 05:56:24;;;;;;;27.58;16.08;;;;;;;6.17;65.94;103173.31;4926610;29;20043;-81
2023/12/18 05:58:52;;;;;;;30.52;15.18;;;;;;;6.06;65.48;103165.69;4925967;29;20083;-81
2023/12/18 06:01:19;;;;;;;26.60;17.27;;;;;;;6.16;65.12;103167.16;4947889;28;20512;-81
2023/12/18 06:03:46;;;;;;;21.77;15.75;;;;;;;6.11;65.59;103173.47;4980590;28;20047;-82
2023/12/18 06:06:14;;;;;;;24.13;16.30;;;;;;;6.20;64.94;103183.78;4952685;28;20408;-83
2023/12/18 06:08:43;;;;;;;31.88;17.80;;;;;;;6.12;65.01;103155.00;4963773;28;20070;-82
2023/12/18 06:11:15;;;;;;;36.38;18.05;;;;;;;6.27;65.21;103181.81;4965580;28;20051;-82
2023/12/18 06:13:45;;;;;;;31.48;17.55;;;;;;;6.06;65.23;103143.75;4965509;28;20051;-80
2023/12/18 06:16:15;;;;;;;34.45;18.17;;;;;;;6.16;65.27;103161.88;4948383;28;20114;-82
2023/12/18 06:18:43;;;;;;;34.45;19.33;;;;;;;6.23;65.03;103180.19;4963304;28;20065;-83
2023/12/18 06:21:15;;;;;;;26.45;17.65;;;;;;;5.88;64.91;103108.22;4930262;29;20046;-81
2023/12/18 06:23:46;;;;;;;37.83;18.88;;;;;;;6.22;64.94;103165.28;4942628;28;20190;-81
2023/12/18 06:26:13;;;;;;;28.30;18.50;;;;;;;5.94;65.25;103118.59;4942198;28;20495;-83
2023/12/18 06:28:56;;;;;;;31.80;18.00;;;;;;;6.32;64.92;103172.84;4923141;28;20055;-83
2023/12/18 06:31:23;;;;;;;31.10;18.35;;;;;;;6.30;64.60;103173.81;4941093;28;20047;-82
2023/12/18 06:33:50;;;;;;;33.65;18.02;;;;;;;6.24;64.45;103163.44;4931122;28;20215;-81
2023/12/18 06:36:20;;;;;;;29.58;18.15;;;;;;;5.86;64.79;103108.25;4941891;28;20054;-81
2023/12/18 06:38:48;;;;;;;30.90;18.58;;;;;;;5.19;64.97;103005.63;4941997;28;20546;-82
2023/12/18 06:41:15;;;;;;;25.38;18.17;;;;;;;6.30;64.92;103189.63;4941252;28;20070;-83
2023/12/18 06:43:42;;;;;;;35.80;19.98;;;;;;;6.31;64.51;103188.72;4948033;28;20046;-82
2023/12/18 06:46:09;;;;;;;34.33;19.52;;;;;;;6.27;65.20;103184.47;4911351;28;20050;-81
2023/12/18 06:48:42;;;;;;;35.78;18.85;;;;;;;6.19;64.59;103163.59;4941660;28;20138;-81
2023/12/18 06:51:14;;;;;;;31.17;18.80;;;;;;;6.29;64.56;103180.88;4929278;28;20503;-81
2023/12/18 06:53:41;;;;;;;29.98;18.77;;;;;;;6.32;63.90;103183.41;4925612;28;20523;-81
2023/12/18 06:56:11;;;;;;;31.50;19.10;;;;;;;6.31;63.76;103164.97;4905775;28;20146;-83
2023/12/18 06:58:39;;;;;;;31.10;21.33;;;;;;;6.38;63.18;103180.59;4921926;28;20162;-81
2023/12/18 07:01:17;;;;;;;32.47;19.83;;;;;;;6.04;63.60;103122.69;4919520;28;20051;-81
2023/12/18 07:03:47;;;;;;;31.85;19.42;;;;;;;6.58;62.97;103192.31;4900710;28;20274;-82
2023/12/18 07:06:17;;;;;;;30.38;20.67;;;;;;;6.45;62.83;103168.06;4933225;28;20042;-81
2023/12/18 07:08:48;;;;;;;29.75;19.02;;;;;;;6.60;62.76;103187.84;4949645;28;20046;-80
2023/12/18 07:11:23;;;;;;;34.72;18.95;;;;;;;6.63;62.54;103199.19;4918227;28;20050;-80
2023/12/18 07:13:55;;;;;;;36.25;20.52;;;;;;;6.70;62.75;103197.22;4889237;28;20272;-82
2023/12/18 07:16:23;;;;;;;34.00;19.50;;;;;;;6.60;62.21;103182.56;4889214;28;20822;-81
2023/12/18 07:18:55;;;;;;;28.38;18.77;;;;;;;6.24;61.79;103118.59;4909342;28;20502;-81
2023/12/18 07:21:23;;;;;;;32.22;18.38;;;;;;;6.72;61.56;103192.72;4932531;28;20501;-81
2023/12/18 07:23:51;;;;;;;27.38;18.63;;;;;;;6.66;61.49;103181.53;4935120;28;20051;-81
2023/12/18 07:26:19;;;;;;;30.88;18.85;;;;;;;6.61;61.78;103174.59;4942498;28;20054;-81
2023/12/18 07:28:50;;;;;;;29.25;17.58;;;;;;;6.85;61.89;103193.22;4928467;28;20121;-82
2023/12/18 07:31:18;;;;;;;33.45;19.63;;;;;;;6.78;61.14;103187.28;4934682;28;20452;-81
2023/12/18 07:33:45;;;;;;;30.35;17.08;;;;;;;6.83;61.16;103197.69;4934482;28;20039;-81
2023/12/18 07:36:13;;;;;;;32.38;19.48;;;;;;;6.81;61.10;103188.94;4928575;28;20483;-81
2023/12/18 07:38:40;;;;;;;30.55;17.65;;;;;;;6.53;61.75;103150.22;4912936;28;20054;-81
2023/12/18 07:41:07;;;;;;;26.17;18.33;;;;;;;6.69;61.19;103165.56;4934837;28;20054;-82
2023/12/18 07:43:34;;;;;;;30.33;17.60;;;;;;;6.77;61.44;103179.38;4952366;28;20082;-80
2023/12/18 07:46:08;;;;;;;30.17;19.30;;;;;;;6.78;61.30;103175.84;4923906;28;20081;-81
2023/12/18 07:48:37;;;;;;;28.08;17.55;;;;;;;6.91;61.66;103185.09;4922160;28;20049;-81
2023/12/18 07:51:05;;;;;;;25.95;16.73;;;;;;;6.92;61.41;103178.91;4948228;28;20489;-81
2023/12/18 07:53:32;;;;;;;24.02;16.85;;;;;;;6.83;61.31;103163.38;4952926;28;20046;-80
2023/12/18 07:56:00;;;;;;;26.10;15.82;;;;;;;6.92;61.39;103173.63;4945205;28;20497;-81
2023/12/18 07:58:27;;;;;;;26.92;16.58;;;;;;;6.70;61.27;103136.50;4943614;28;20046;-81
2023/12/18 08:00:55;;;;;;;26.45;16.65;;;;;;;7.06;60.90;103196.94;4937653;28;20101;-81
2023/12/18 08:03:22;;;;;;;28.08;17.83;;;;;;;7.09;61.15;103191.56;4961639;28;20126;-82
2023/12/18 08:05:49;;;;;;;30.80;20.17;;;;;;;6.73;60.59;103132.91;4952949;28;20047;-81
2023/12/18 08:08:16;;;;;;;25.55;17.92;;;;;;;6.97;60.07;103158.50;4923183;28;20090;-82
2023/12/18 08:10:44;;;;;;;28.52;16.90;;;;;;;7.20;60.47;103172.72;4927656;28;20753;-80
2023/12/18 08:13:11;;;;;;;35.60;17.65;;;;;;;7.22;60.11;103190.22;4948411;28;20105;-82
2023/12/18 08:15:38;;;;;;;33.05;17.85;;;;;;;7.12;60.23;103148.34;4942034;28;20133;-82
2023/12/18 08:18:06;;;;;;;32.47;20.20;;;;;;;7.09;59.51;103137.84;4940153;28;20047;-80
2023/12/18 08:20:33;;;;;;;35.22;19.63;;;;;;;7.44;60.20;103182.44;4954077;28;20113;-79
2023/12/18 08:23:01;;;;;;;39.40;20.40;;;;;;;7.42;60.07;103171.06;4956583;28;20466;-82
2023/12/18 08:25:29;;;;;;;34.80;20.83;;;;;;;7.55;60.04;103168.88;4950549;28;20039;-80
2023/12/18 08:27:56;;;;;;;32.47;21.85;;;;;;;7.58;59.85;103175.81;4964927;28;20046;-82
2023/12/18 08:30:23;;;;;;;36.35;23.02;;;;;;;7.70;59.84;103183.31;4960298;28;20438;-82
2023/12/18 08:32:50;;;;;;;38.20;22.90;;;;;;;7.23;59.15;103103.91;4961462;28;20046;-81
2023/12/18 08:35:17;;;;;;;38.55;25.08;;;;;;;7.75;60.03;103191.94;4957617;28;20501;-82
2023/12/18 08:37:44;;;;;;;37.05;25.30;;;;;;;7.82;59.49;103197.88;4952157;28;20050;-80
2023/12/18 08:40:13;;;;;;;40.03;24.85;;;;;;;7.71;59.63;103185.88;4946328;28;20069;-82
2023/12/18 08:42:43;;;;;;;41.20;26.52;;;;;;;7.91;59.64;103182.53;4947390;28;20066;-81
2023/12/18 08:45:10;;;;;;;43.65;25.98;;;;;;;7.88;59.29;103182.63;4933871;28;20142;-81
2023/12/18 08:47:40;;;;;;;45.63;27.33;;;;;;;7.83;59.60;103183.72;4953214;28;20058;-83
2023/12/18 08:50:09;;;;;;;45.63;28.83;;;;;;;7.93;60.04;103183.31;4961337;28;20382;-81
2023/12/18 08:52:36;;;;;;;48.83;28.23;;;;;;;7.94;59.92;103181.56;4944578;28;20047;-81
2023/12/18 08:55:06;;;;;;;42.03;27.33;;;;;;;7.99;59.21;103179.63;4944718;28;20051;-81
2023/12/18 08:57:33;;;;;;;44.25;24.70;;;;;;;7.79;59.18;103118.63;4937972;28;20050;-82
2023/12/18 09:00:04;;;;;;;43.17;26.75;;;;;;;8.22;58.59;103176.09;4930882;28;20047;-82
2023/12/18 09:02:42;;;;;;;40.97;27.25;;;;;;;8.16;58.88;103173.69;4940166;28;20082;-81
2023/12/18 09:05:13;;;;;;;53.63;29.70;;;;;;;8.01;59.33;103139.84;4941517;28;20058;-82
2023/12/18 09:07:42;;;;;;;49.30;28.90;;;;;;;8.14;59.08;103133.19;4946131;28;20055;-82
2023/12/18 09:10:09;;;;;;;49.17;27.77;;;;;;;8.26;58.41;103151.25;4941539;28;20378;-81
2023/12/18 09:12:36;;;;;;;44.33;27.88;;;;;;;8.38;58.27;103143.75;4944998;28;20311;-83
2023/12/18 09:15:03;;;;;;;46.28;29.08;;;;;;;8.46;57.86;103147.00;4941980;28;20055;-79
2023/12/18 09:17:30;;;;;;;52.45;29.50;;;;;;;8.65;57.53;103153.28;4941731;28;20046;-81
2023/12/18 09:19:57;;;;;;;42.85;28.80;;;;;;;8.35;57.34;103097.97;4944038;28;20121;-81
2023/12/18 09:22:25;;;;;;;48.08;31.10;;;;;;;8.40;57.68;103099.56;4943638;28;20043;-81
2023/12/18 09:25:00;;;;;;;47.10;29.92;;;;;;;8.69;57.73;103133.72;4919188;28;20046;-81
2023/12/18 09:27:29;;;;;;;48.60;29.00;;;;;;;8.54;56.89;103097.22;4928841;28;20298;-83
2023/12/18 09:29:56;;;;;;;48.05;29.85;;;;;;;8.96;56.77;103152.03;4918356;29;20479;-80
2023/12/18 09:32:27;;;;;;;52.72;31.60;;;;;;;8.71;56.80;103105.38;4908603;29;20098;-80
2023/12/18 09:34:55;;;;;;;49.35;31.10;;;;;;;9.28;56.16;103177.19;4909581;28;20050;-80
2023/12/18 09:37:22;;;;;;;48.20;29.45;;;;;;;9.20;55.99;103145.69;4907144;29;20884;-79
2023/12/18 09:39:49;;;;;;;53.05;31.20;;;;;;;9.44;56.44;103168.56;4909725;29;20051;-80
2023/12/18 09:42:16;;;;;;;46.08;30.05;;;;;;;9.45;56.49;103165.84;4951635;28;20046;-81
2023/12/18 09:44:47;;;;;;;52.08;31.67;;;;;;;9.42;56.10;103158.03;4945729;28;20866;-80
2023/12/18 09:47:14;;;;;;;48.78;30.10;;;;;;;9.40;55.96;103152.78;4906908;29;20474;-80
2023/12/18 09:49:41;;;;;;;47.75;29.17;;;;;;;9.40;56.27;103165.19;4931659;29;20051;-80
2023/12/18 09:52:11;;;;;;;53.83;31.38;;;;;;;9.40;55.52;103146.63;4942687;28;20481;-79
2023/12/18 09:54:42;;;;;;;57.65;31.23;;;;;;;9.38;55.83;103132.59;4942610;28;20137;-78
2023/12/18 09:57:14;;;;;;;48.90;27.80;;;;;;;8.97;55.57;103058.38;4930332;28;20046;-80
2023/12/18 09:59:42;;;;;;;43.10;27.77;;;;;;;9.33;55.89;103139.88;4953648;28;20820;-78
2023/12/18 10:02:12;;;;;;;47.95;27.70;;;;;;;9.37;56.06;103149.44;4936225;28;20077;-80
2023/12/18 10:04:43;;;;;;;48.20;27.42;;;;;;;9.41;55.47;103138.59;4951994;28;20042;-80
2023/12/18 10:07:10;;;;;;;49.03;29.30;;;;;;;9.38;55.90;103129.94;4936265;28;20074;-80
2023/12/18 10:09:37;;;;;;;42.15;26.73;;;;;;;9.25;56.37;103104.88;4957068;28;20745;-79
2023/12/18 10:12:05;;;;;;;49.03;28.25;;;;;;;9.42;56.11;103134.19;4957599;28;20511;-81
2023/12/18 10:14:33;;;;;;;41.03;25.63;;;;;;;9.43;56.78;103121.78;4920919;28;20388;-80
2023/12/18 10:17:05;;;;;;;36.03;25.70;;;;;;;9.35;56.54;103091.16;4920020;28;20509;-80
2023/12/18 10:19:32;;;;;;;41.85;25.05;;;;;;;9.58;56.62;103129.03;4943776;28;20051;-80
2023/12/18 10:22:00;;;;;;;39.30;25.55;;;;;;;9.69;56.05;103120.63;4921780;28;20038;-79
2023/12/18 10:24:27;;;;;;;42.80;24.52;;;;;;;9.45;56.41;103096.91;4927868;28;20049;-80
2023/12/18 10:26:54;;;;;;;41.50;24.33;;;;;;;9.60;56.53;103117.44;4927399;28;20396;-79
2023/12/18 10:29:21;;;;;;;40.53;24.33;;;;;;;8.87;56.44;102999.63;4929231;28;20055;-80
2023/12/18 10:31:48;;;;;;;39.13;23.90;;;;;;;9.49;56.47;103082.59;4928062;28;20193;-82
2023/12/18 10:34:20;;;;;;;41.22;25.05;;;;;;;9.86;56.12;103107.44;4937590;28;20050;-81
2023/12/18 10:36:54;;;;;;;45.60;25.08;;;;;;;9.60;56.72;103069.69;4937839;28;20078;-82
2023/12/18 10:39:25;;;;;;;43.38;27.40;;;;;;;9.23;56.63;103006.03;4921445;28;20050;-81
2023/12/18 10:41:54;;;;;;;40.85;25.08;;;;;;;9.68;57.37;103103.81;4942817;28;20058;-81
2023/12/18 10:44:22;;;;;;;41.60;26.38;;;;;;;9.77;56.05;103076.03;4931128;28;20502;-82
2023/12/18 10:46:51;;;;;;;42.15;25.40;;;;;;;9.98;56.58;103095.41;4925116;28;20327;-81
2023/12/18 10:49:20;;;;;;;38.30;24.63;;;;;;;10.02;56.00;103103.16;4908131;29;20475;-80
2023/12/18 10:51:49;;;;;;;45.08;26.58;;;;;;;9.89;56.17;103079.91;4910191;28;20042;-80
2023/12/18 10:54:24;;;;;;;44.00;25.92;;;;;;;9.47;56.82;103009.34;4943203;28;20082;-80
2023/12/18 10:56:52;;;;;;;42.30;25.63;;;;;;;9.88;56.72;103062.25;4924578;28;20062;-81
2023/12/18 10:59:23;;;;;;;38.72;24.70;;;;;;;9.99;56.52;103076.75;4939159;28;20122;-81
2023/12/18 11:01:51;;;;;;;43.85;27.10;;;;;;;9.77;56.26;103028.28;4930973;28;20047;-80
2023/12/18 11:04:19;;;;;;;37.92;23.45;;;;;;;10.12;56.44;103076.16;4935991;28;20372;-81
2023/12/18 11:06:47;;;;;;;40.53;24.27;;;;;;;10.12;55.79;103062.88;4938818;28;20065;-78
2023/12/18 11:09:15;;;;;;;39.72;24.60;;;;;;;10.17;56.39;103075.03;4934343;28;20043;-80
2023/12/18 11:11:42;;;;;;;39.78;25.08;;;;;;;10.21;56.44;103068.63;4947598;28;20059;-80
2023/12/18 11:14:35;;;;;;;40.97;23.08;;;;;;;10.20;56.10;103058.09;4938705;28;20326;-81
2023/12/18 11:17:29;;;;;;;38.92;23.75;;;;;;;10.10;56.26;103047.06;4931548;28;20043;-81
2023/12/18 11:20:15;;;;;;;33.30;21.80;;;;;;;10.34;55.33;103050.34;4915031;29;20074;-80
2023/12/18 11:22:46;;;;;;;39.90;24.88;;;;;;;10.46;55.32;103052.41;4921304;29;20151;-80
2023/12/18 11:25:16;;;;;;;39.47;21.98;;;;;;;10.52;55.16;103047.72;4936483;28;20043;-79